Time;durP1;ratioP1;P1;durP2;ratioP2;P2;SDS_P1;SDS_P2;PMS_P1;PMS_P2;Temp;Humidity;BMP_temperature;BMP_pressure;BME280_temperature;BME280_humidity;BME280_pressure;Samples;Min_cycle;Max_cycle;Signal;HPM_P1;HPM_P2
2022/01/14 00:01:21;;;;;;;12.75;7.07;;;;;;;6.14;56.24;101302.84;4463929;32;34464;-83
2022/01/14 00:03:49;;;;;;;15.25;7.45;;;;;;;6.32;55.56;101296.72;4468754;32;34512;-83
2022/01/14 00:06:17;;;;;;;16.48;7.70;;;;;;;5.98;56.31;101302.00;4438357;32;32753;-83
2022/01/14 00:08:44;;;;;;;13.55;6.65;;;;;;;6.01;56.20;101298.50;4463546;32;33865;-83
2022/01/14 00:11:17;;;;;;;13.38;6.28;;;;;;;6.02;56.13;101302.84;4477298;32;34516;-83
2022/01/14 00:13:52;;;;;;;15.85;6.97;;;;;;;5.90;56.10;101299.34;4456674;32;33269;-83
2022/01/14 00:16:21;;;;;;;15.35;7.00;;;;;;;5.97;56.02;101300.25;4465195;32;32589;-83
2022/01/14 00:18:48;;;;;;;12.85;7.12;;;;;;;5.65;57.18;101292.38;4462747;32;35999;-83
2022/01/14 00:21:16;;;;;;;17.17;7.25;;;;;;;5.97;56.09;101291.50;4469733;32;34455;-83
2022/01/14 00:23:46;;;;;;;12.88;6.78;;;;;;;5.81;56.82;101298.47;4463111;32;33442;-83
2022/01/14 00:31:53;;;;;;;14.73;7.37;;;;;;;5.63;57.58;101294.09;4464828;32;33843;-85
2022/01/14 00:34:21;;;;;;;14.45;8.02;;;;;;;5.57;57.53;101292.38;4463304;32;33159;-84
2022/01/14 00:36:49;;;;;;;12.65;6.35;;;;;;;5.85;57.00;101288.00;4449354;32;33237;-84
2022/01/14 00:39:16;;;;;;;16.85;6.95;;;;;;;5.80;57.02;101275.78;4453912;32;33297;-84
2022/01/14 00:41:44;;;;;;;15.73;7.50;;;;;;;5.61;57.32;101285.38;4462328;32;34469;-84
2022/01/14 00:44:14;;;;;;;15.35;7.15;;;;;;;5.70;57.08;101281.88;4462341;32;34419;-84
2022/01/14 00:46:44;;;;;;;10.85;5.90;;;;;;;5.73;57.31;101276.63;4461604;32;33408;-84
2022/01/14 00:49:14;;;;;;;11.75;6.60;;;;;;;6.01;56.48;101280.16;4461909;32;34335;-84
2022/01/14 00:51:42;;;;;;;16.30;6.25;;;;;;;5.67;56.79;101280.13;4461585;32;33668;-84
2022/01/14 00:54:10;;;;;;;13.30;7.45;;;;;;;5.81;56.75;101273.13;4449556;32;32342;-84
2022/01/14 00:59:16;;;;;;;14.57;6.57;;;;;;;5.55;57.26;101267.87;4462842;32;33729;-85
2022/01/14 01:01:50;;;;;;;14.80;7.28;;;;;;;5.63;57.08;101260.91;4463033;32;34714;-84
2022/01/14 01:04:39;;;;;;;11.45;5.32;;;;;;;5.42;57.20;101268.78;4449148;32;33100;-84
2022/01/14 01:07:09;;;;;;;13.13;5.62;;;;;;;5.30;57.72;101261.75;4461807;32;33220;-84
2022/01/14 01:09:38;;;;;;;12.48;6.12;;;;;;;5.31;57.81;101266.12;4467426;32;34588;-83
2022/01/14 01:12:17;;;;;;;13.52;7.07;;;;;;;5.12;57.89;101269.59;4455839;32;32575;-83
2022/01/14 01:15:01;;;;;;;11.38;6.05;;;;;;;5.19;57.77;101266.12;4478039;32;33759;-84
2022/01/14 01:17:30;;;;;;;20.33;7.05;;;;;;;5.01;58.54;101271.31;4464087;32;32198;-83
2022/01/14 01:19:58;;;;;;;15.57;6.97;;;;;;;4.87;59.03;101268.66;4476255;32;33966;-83
2022/01/14 01:22:26;;;;;;;15.57;7.10;;;;;;;4.93;58.80;101263.44;4448519;32;33858;-84
2022/01/14 01:24:54;;;;;;;15.07;6.72;;;;;;;5.25;57.77;101267.87;4469542;32;33736;-84
2022/01/14 01:27:22;;;;;;;14.73;7.18;;;;;;;5.08;58.15;101267.81;4449519;32;32593;-83
2022/01/14 01:29:56;;;;;;;17.42;7.82;;;;;;;5.04;58.19;101266.09;4468632;32;33497;-83
2022/01/14 01:32:24;;;;;;;14.68;7.10;;;;;;;5.28;57.74;101260.03;4464399;32;33556;-82
2022/01/14 01:34:51;;;;;;;15.15;7.22;;;;;;;5.11;58.06;101257.37;4466417;32;33892;-82
2022/01/14 01:37:19;;;;;;;15.65;7.53;;;;;;;5.04;58.29;101261.72;4449543;32;32737;-82
2022/01/14 01:39:47;;;;;;;16.15;7.10;;;;;;;4.93;58.42;101249.47;4436878;32;34165;-82
2022/01/14 01:42:19;;;;;;;14.68;7.32;;;;;;;4.81;58.96;101248.59;4449378;32;34155;-83
2022/01/14 01:44:50;;;;;;;17.25;7.37;;;;;;;4.88;58.75;101245.09;4450902;32;32691;-82
2022/01/14 01:47:19;;;;;;;16.90;7.82;;;;;;;4.55;59.37;101250.22;4463065;32;32947;-82
2022/01/14 01:49:46;;;;;;;12.90;7.30;;;;;;;4.85;58.59;101244.25;4474938;32;33311;-82
2022/01/14 01:52:14;;;;;;;17.70;7.95;;;;;;;4.46;59.74;101244.94;4467566;32;33975;-83
2022/01/14 01:54:42;;;;;;;15.70;6.62;;;;;;;4.46;60.08;101237.97;4462499;32;32053;-84
2022/01/14 01:57:09;;;;;;;15.35;7.45;;;;;;;4.75;58.86;101234.63;4459864;32;33464;-83
2022/01/14 01:59:37;;;;;;;15.35;7.05;;;;;;;4.80;58.74;101228.53;4458659;32;34665;-83
2022/01/14 02:02:05;;;;;;;19.70;6.90;;;;;;;4.80;58.79;101235.50;4448273;32;34896;-84
2022/01/14 02:04:33;;;;;;;15.57;6.93;;;;;;;4.86;58.54;101231.16;4466846;32;33151;-83
2022/01/14 02:07:01;;;;;;;14.45;7.97;;;;;;;4.65;59.16;101228.44;4463020;32;33434;-83
2022/01/14 02:09:28;;;;;;;16.25;7.43;;;;;;;4.95;58.13;101219.84;4462003;32;33321;-83
2022/01/14 02:11:56;;;;;;;15.07;7.35;;;;;;;4.80;58.33;101212.81;4449231;32;33847;-84
2022/01/14 02:14:41;;;;;;;16.73;7.72;;;;;;;4.72;58.51;101218.91;4460266;32;33643;-85
2022/01/14 02:22:50;;;;;;;16.48;7.15;;;;;;;4.79;58.04;101192.72;4465976;32;34718;-84
2022/01/14 02:25:28;;;;;;;18.52;7.93;;;;;;;4.47;58.71;101190.06;4475702;32;33791;-84
2022/01/14 02:28:00;;;;;;;14.25;7.40;;;;;;;4.99;57.55;101184.06;4451996;32;31965;-83
2022/01/14 02:30:29;;;;;;;14.35;6.60;;;;;;;4.85;57.90;101192.78;4469638;32;33934;-84
2022/01/14 02:32:57;;;;;;;16.52;7.15;;;;;;;4.89;57.64;101180.56;4457327;32;32872;-84
2022/01/14 02:35:25;;;;;;;13.02;6.53;;;;;;;4.74;57.84;101184.00;4450300;32;35901;-83
2022/01/14 02:37:52;;;;;;;13.48;7.35;;;;;;;4.64;57.99;101182.25;4463052;32;32732;-83
2022/01/14 02:40:22;;;;;;;16.83;6.72;;;;;;;4.29;58.68;101180.38;4450405;32;32662;-83
2022/01/14 02:42:49;;;;;;;14.27;6.93;;;;;;;4.48;58.50;101181.34;4468918;32;34002;-84
2022/01/14 02:45:18;;;;;;;16.15;7.15;;;;;;;4.19;59.25;101183.84;4450733;32;33646;-84
2022/01/14 02:47:46;;;;;;;15.18;6.43;;;;;;;4.03;59.91;101182.00;4456223;32;32390;-86
2022/01/14 02:50:18;;;;;;;17.08;6.97;;;;;;;3.99;59.80;101170.69;4455891;32;33434;-85
2022/01/14 02:55:22;;;;;;;22.45;7.50;;;;;;;3.88;60.78;101172.34;4470539;32;34248;-83
2022/01/14 02:57:53;;;;;;;13.55;7.50;;;;;;;4.00;60.35;101172.41;4457494;32;33183;-84
2022/01/14 03:00:25;;;;;;;16.58;8.18;;;;;;;3.73;60.96;101164.41;4468583;32;32595;-83
2022/01/14 03:02:52;;;;;;;11.93;5.90;;;;;;;3.71;61.16;101164.41;4457516;32;34033;-84
2022/01/14 03:05:20;;;;;;;15.95;6.85;;;;;;;3.95;60.39;101154.97;4448793;32;32724;-83
2022/01/14 03:07:48;;;;;;;14.23;7.20;;;;;;;3.95;59.98;101148.00;4463675;32;33321;-83
2022/01/14 03:10:18;;;;;;;14.57;6.05;;;;;;;3.67;61.23;101152.19;4456431;32;34289;-83
2022/01/14 03:12:47;;;;;;;15.02;6.30;;;;;;;3.85;60.55;101149.69;4463106;32;34683;-84
2022/01/14 03:15:15;;;;;;;15.93;6.87;;;;;;;3.85;60.98;101147.09;4448784;32;32844;-84
2022/01/14 03:17:43;;;;;;;16.23;7.57;;;;;;;3.80;61.04;101143.56;4465002;32;34111;-84
2022/01/14 03:20:26;;;;;;;13.13;7.10;;;;;;;3.60;61.57;101137.34;4462405;32;33879;-83
2022/01/14 03:23:04;;;;;;;16.08;6.90;;;;;;;3.74;61.31;101135.69;4469378;32;33439;-83
2022/01/14 03:25:51;;;;;;;17.55;7.50;;;;;;;3.39;62.53;101134.59;4475824;32;34059;-83
2022/01/14 03:28:22;;;;;;;14.15;7.28;;;;;;;3.50;62.16;101125.97;4464728;32;33409;-82
2022/01/14 03:30:53;;;;;;;16.37;7.80;;;;;;;3.65;62.13;101122.56;4449676;32;33626;-82
2022/01/14 03:33:21;;;;;;;14.73;9.10;;;;;;;3.36;63.19;101126.75;4463970;32;34448;-82
2022/01/14 03:35:49;;;;;;;15.80;7.93;;;;;;;3.32;63.24;101124.13;4449878;32;32622;-82
2022/01/14 03:38:17;;;;;;;19.62;7.68;;;;;;;3.26;63.83;101118.84;4455498;32;33004;-82
2022/01/14 03:40:45;;;;;;;14.82;6.93;;;;;;;3.64;63.15;101123.44;4451315;32;33550;-83
2022/01/14 03:43:13;;;;;;;18.27;8.00;;;;;;;3.61;62.99;101120.84;4442909;32;33020;-84
2022/01/14 03:45:41;;;;;;;18.23;7.80;;;;;;;3.63;62.97;101119.09;4449987;32;33435;-84
2022/01/14 03:48:10;;;;;;;14.82;6.78;;;;;;;3.67;62.85;101110.41;4469960;32;33383;-84
2022/01/14 03:50:38;;;;;;;19.50;7.18;;;;;;;3.96;61.63;101101.84;4462869;32;33875;-84
2022/01/14 03:53:05;;;;;;;18.40;7.25;;;;;;;3.53;62.96;101109.47;4461734;32;33282;-85
2022/01/14 03:55:38;;;;;;;17.62;7.20;;;;;;;3.14;64.89;101097.91;4461796;32;33862;-83
2022/01/14 03:58:09;;;;;;;15.40;8.20;;;;;;;3.36;64.68;101085.84;4449130;32;32614;-83
2022/01/14 04:00:37;;;;;;;19.12;7.80;;;;;;;3.31;64.82;101088.41;4457593;32;33669;-81
2022/01/14 04:03:06;;;;;;;18.00;7.78;;;;;;;3.41;65.04;101085.88;4461533;32;33579;-83
2022/01/14 04:05:35;;;;;;;17.87;7.90;;;;;;;3.41;64.76;101081.53;4462676;32;33849;-82
2022/01/14 04:08:03;;;;;;;18.67;7.50;;;;;;;3.71;64.13;101078.22;4455818;32;33046;-83
2022/01/14 04:10:31;;;;;;;17.15;6.50;;;;;;;3.78;64.39;101082.59;4462813;32;34712;-83
2022/01/14 04:13:06;;;;;;;14.75;6.97;;;;;;;3.69;65.09;101089.50;4450353;32;33193;-83
2022/01/14 04:15:36;;;;;;;22.17;8.73;;;;;;;3.55;65.78;101079.00;4457006;32;32629;-83
2022/01/14 04:18:11;;;;;;;21.42;7.85;;;;;;;3.32;66.16;101087.59;4468873;32;32977;-83
2022/01/14 04:20:40;;;;;;;14.98;6.30;;;;;;;3.47;66.00;101085.94;4464063;32;33841;-83
2022/01/14 04:23:09;;;;;;;15.77;8.48;;;;;;;3.82;64.87;101073.91;4450543;32;32992;-83
2022/01/14 04:25:37;;;;;;;18.58;7.78;;;;;;;3.74;64.79;101065.16;4464421;32;33820;-83
2022/01/14 04:28:05;;;;;;;19.50;8.60;;;;;;;3.99;64.43;101057.44;4462646;32;33434;-83
2022/01/14 04:30:33;;;;;;;17.30;7.75;;;;;;;3.98;64.05;101053.91;4468197;32;34499;-83
2022/01/14 04:33:03;;;;;;;16.90;6.55;;;;;;;4.27;62.92;101054.03;4455045;32;33626;-83
2022/01/14 04:35:31;;;;;;;13.93;6.97;;;;;;;4.48;62.39;101044.47;4456338;32;34257;-84
2022/01/14 04:38:00;;;;;;;17.27;7.70;;;;;;;4.58;62.33;101047.06;4468741;32;32976;-83
2022/01/14 04:40:28;;;;;;;18.10;7.62;;;;;;;4.32;62.81;101047.06;4443048;32;32891;-83
2022/01/14 04:42:57;;;;;;;15.32;7.78;;;;;;;4.33;63.17;101045.31;4466946;32;33750;-83
2022/01/14 04:48:07;;;;;;;21.75;8.98;;;;;;;4.05;64.31;101044.38;4457701;32;33368;-83
2022/01/14 04:50:34;;;;;;;19.37;7.95;;;;;;;4.16;63.75;101045.25;4467603;32;33402;-83
2022/01/14 04:53:03;;;;;;;16.70;7.30;;;;;;;4.27;63.55;101040.94;4463887;32;32719;-83
2022/01/14 04:55:30;;;;;;;17.15;8.20;;;;;;;4.59;62.21;101037.47;4477001;32;33888;-83
2022/01/14 04:57:58;;;;;;;18.00;7.65;;;;;;;4.24;63.36;101027.84;4449506;32;32255;-83
2022/01/14 05:00:30;;;;;;;15.27;7.40;;;;;;;4.63;62.16;101016.56;4462272;32;33251;-83
2022/01/14 05:02:58;;;;;;;14.82;7.37;;;;;;;4.54;62.24;101018.28;4462309;32;33671;-83
2022/01/14 05:05:29;;;;;;;17.95;7.72;;;;;;;4.55;61.96;101012.19;4460215;32;34075;-83
2022/01/14 05:07:57;;;;;;;17.17;7.65;;;;;;;4.61;61.57;101020.06;4467757;32;33099;-83
2022/01/14 05:12:56;;;;;;;15.63;7.53;;;;;;;4.32;62.43;101018.28;4475610;32;33984;-83
2022/01/14 05:15:24;;;;;;;16.08;7.25;;;;;;;4.35;62.28;101026.13;4464511;31;32626;-83
2022/01/14 05:17:52;;;;;;;18.85;8.43;;;;;;;4.33;62.10;101024.41;4462649;31;35694;-82
2022/01/14 05:20:20;;;;;;;20.08;7.95;;;;;;;3.92;63.28;101029.53;4463732;32;33909;-82
2022/01/14 05:22:47;;;;;;;16.02;7.15;;;;;;;4.20;62.43;101018.25;4455108;31;34456;-82
2022/01/14 05:25:16;;;;;;;20.70;9.10;;;;;;;4.35;61.96;101018.28;4467134;32;32376;-81
2022/01/14 05:27:44;;;;;;;19.25;7.65;;;;;;;4.43;61.39;101014.81;4465481;32;32523;-82
2022/01/14 05:30:13;;;;;;;17.08;8.13;;;;;;;4.13;62.42;101016.53;4464331;32;33784;-82
2022/01/14 05:32:46;;;;;;;15.77;8.05;;;;;;;4.10;62.25;101017.38;4465651;32;33320;-82
2022/01/14 05:35:16;;;;;;;19.12;8.40;;;;;;;4.42;61.43;101020.91;4462721;32;33457;-82
2022/01/14 05:37:44;;;;;;;21.17;8.48;;;;;;;4.46;61.52;101017.41;4453788;31;33308;-81
2022/01/14 05:40:14;;;;;;;16.12;8.02;;;;;;;4.15;62.31;101024.34;4465645;32;34713;-81
2022/01/14 05:42:42;;;;;;;15.40;7.60;;;;;;;4.14;62.59;101023.50;4476764;31;34455;-82
2022/01/14 05:45:11;;;;;;;18.52;8.70;;;;;;;4.65;60.74;101016.53;4459970;32;33621;-82
2022/01/14 05:47:39;;;;;;;18.30;8.65;;;;;;;4.24;61.97;101024.38;4466234;31;31322;-82
2022/01/14 05:50:11;;;;;;;17.58;7.90;;;;;;;4.19;62.32;101020.88;4453259;31;32754;-82
2022/01/14 05:52:40;;;;;;;19.83;9.13;;;;;;;4.53;61.11;101020.03;4460790;32;34162;-82
2022/01/14 05:55:09;;;;;;;23.55;9.60;;;;;;;4.23;62.04;101025.25;4464193;32;33087;-83
2022/01/14 05:57:38;;;;;;;18.30;8.32;;;;;;;4.18;61.97;101020.00;4436830;32;33697;-82
2022/01/14 06:00:11;;;;;;;18.45;8.13;;;;;;;3.89;62.75;101037.34;4465639;31;34224;-83
2022/01/14 06:02:44;;;;;;;19.75;7.75;;;;;;;4.01;62.61;101027.81;4462428;31;34760;-82
2022/01/14 06:05:12;;;;;;;22.52;8.20;;;;;;;4.17;62.25;101023.47;4453485;31;33325;-83
2022/01/14 06:07:40;;;;;;;19.15;9.10;;;;;;;4.25;61.91;101020.88;4464984;32;32331;-83
2022/01/14 06:10:09;;;;;;;21.67;8.63;;;;;;;4.34;61.58;101023.50;4450124;32;32773;-82
2022/01/14 06:12:37;;;;;;;18.17;7.97;;;;;;;4.45;61.02;101020.91;4438120;31;33215;-83
2022/01/14 06:15:05;;;;;;;17.55;8.55;;;;;;;4.62;60.40;101013.94;4452193;32;32790;-83
2022/01/14 06:17:32;;;;;;;19.12;8.88;;;;;;;4.56;60.32;101011.34;4463118;32;32926;-83
2022/01/14 06:20:00;;;;;;;17.73;8.45;;;;;;;4.75;59.49;101002.59;4463100;32;33260;-83
2022/01/14 06:22:29;;;;;;;20.67;8.35;;;;;;;4.56;59.79;100999.13;4463504;31;33696;-83
2022/01/14 06:24:58;;;;;;;18.08;8.05;;;;;;;4.20;60.14;100999.97;4451162;31;32841;-84
2022/01/14 06:27:27;;;;;;;13.13;6.55;;;;;;;3.88;60.69;101004.25;4463411;31;34112;-83
2022/01/14 06:29:55;;;;;;;15.95;8.15;;;;;;;4.00;60.61;100996.44;4463858;32;33273;-83
2022/01/14 06:32:23;;;;;;;20.77;8.57;;;;;;;4.14;60.43;101002.56;4452155;31;32961;-82
2022/01/14 06:34:51;;;;;;;21.90;9.55;;;;;;;4.07;60.36;101003.41;4462449;32;34121;-84
2022/01/14 06:37:19;;;;;;;20.33;9.68;;;;;;;3.78;60.78;101005.97;4463358;32;33587;-83
2022/01/14 06:39:46;;;;;;;21.08;10.13;;;;;;;3.62;61.79;101001.56;4475052;32;33291;-83
2022/01/14 06:42:14;;;;;;;18.10;8.48;;;;;;;3.44;62.96;101007.56;4448998;32;32781;-83
2022/01/14 06:44:43;;;;;;;18.40;8.15;;;;;;;3.51;62.78;101001.50;4439630;32;32588;-84
2022/01/14 06:47:10;;;;;;;19.27;10.05;;;;;;;3.73;62.25;100997.25;4444205;32;33051;-84
2022/01/14 06:49:38;;;;;;;14.00;7.70;;;;;;;3.63;61.87;100998.94;4454599;32;33922;-83
2022/01/14 06:52:06;;;;;;;15.45;8.57;;;;;;;3.60;62.06;100998.91;4453464;32;34370;-84
2022/01/14 06:54:34;;;;;;;20.23;7.87;;;;;;;3.25;63.86;100991.81;4430060;32;33455;-84
2022/01/14 06:57:03;;;;;;;21.35;9.10;;;;;;;3.30;63.97;100995.31;4442149;32;33145;-83
2022/01/14 06:59:31;;;;;;;18.27;8.13;;;;;;;3.21;65.33;100990.03;4441272;32;33845;-83
2022/01/14 07:01:59;;;;;;;19.98;8.35;;;;;;;3.16;66.03;100991.75;4456150;32;33654;-84
2022/01/14 07:04:27;;;;;;;20.17;8.35;;;;;;;3.43;65.67;100990.16;4415064;32;33180;-83
2022/01/14 07:06:55;;;;;;;17.45;7.55;;;;;;;3.42;66.24;100986.69;4455942;32;33760;-83
2022/01/14 07:09:23;;;;;;;14.57;7.00;;;;;;;3.57;66.12;100983.25;4446536;32;33916;-83
2022/01/14 07:11:57;;;;;;;18.15;6.68;;;;;;;3.90;65.04;100984.22;4455666;32;34553;-83
2022/01/14 07:14:25;;;;;;;18.05;7.75;;;;;;;4.32;63.79;100973.84;4432702;32;32723;-83
2022/01/14 07:16:53;;;;;;;18.80;7.85;;;;;;;4.02;64.73;100977.28;4455578;32;33015;-83
2022/01/14 07:19:22;;;;;;;17.27;6.78;;;;;;;3.95;65.22;100972.06;4445118;32;33068;-83
2022/01/14 07:21:50;;;;;;;15.88;6.93;;;;;;;3.80;65.80;100965.91;4457527;32;34740;-84
2022/01/14 07:24:17;;;;;;;15.75;7.00;;;;;;;4.02;64.96;100963.34;4443574;32;33993;-83
2022/01/14 07:26:50;;;;;;;16.30;7.10;;;;;;;4.04;65.07;100961.63;4459460;32;33034;-83
2022/01/14 07:29:19;;;;;;;15.18;6.97;;;;;;;4.44;63.79;100959.03;4458839;32;33881;-86
2022/01/14 07:31:47;;;;;;;14.73;6.65;;;;;;;4.69;62.83;100949.41;4441986;32;33375;-86
2022/01/14 07:34:15;;;;;;;19.25;7.15;;;;;;;4.68;62.99;100955.50;4445004;32;33727;-86
2022/01/14 07:36:43;;;;;;;12.48;6.78;;;;;;;4.97;62.03;100955.47;4455305;32;33015;-85
2022/01/14 07:39:10;;;;;;;15.73;7.15;;;;;;;5.09;61.69;100955.44;4444976;32;34853;-86
2022/01/14 07:41:38;;;;;;;17.00;7.28;;;;;;;5.27;61.04;100950.16;4445960;32;33790;-85
2022/01/14 07:44:06;;;;;;;14.05;7.40;;;;;;;4.94;62.08;100945.87;4450313;32;33467;-86
2022/01/14 07:46:35;;;;;;;13.45;6.50;;;;;;;5.50;60.47;100957.88;4462973;32;33125;-85
2022/01/14 07:49:03;;;;;;;14.52;6.43;;;;;;;5.45;60.58;100958.78;4460773;32;34296;-86
2022/01/14 07:51:31;;;;;;;14.32;5.72;;;;;;;5.43;60.91;100963.19;4450198;32;32605;-85
2022/01/14 07:54:04;;;;;;;14.48;6.18;;;;;;;5.45;60.63;100969.25;4463833;32;31947;-86
2022/01/14 07:56:37;;;;;;;13.05;6.32;;;;;;;5.40;61.02;100964.91;4456041;31;33430;-86
2022/01/14 07:59:06;;;;;;;11.63;6.30;;;;;;;5.59;60.46;100970.06;4466791;32;33075;-86
2022/01/14 08:01:36;;;;;;;12.82;5.68;;;;;;;5.52;60.70;100971.00;4467070;32;33261;-86
2022/01/14 08:04:05;;;;;;;12.25;6.45;;;;;;;5.81;59.83;100965.59;4474761;32;33516;-86
2022/01/14 08:06:38;;;;;;;13.98;5.70;;;;;;;5.94;59.20;100964.69;4475086;32;32518;-85
2022/01/14 08:09:06;;;;;;;13.98;6.15;;;;;;;5.81;59.71;100963.84;4454953;32;33254;-86
2022/01/14 08:11:33;;;;;;;14.98;6.47;;;;;;;5.83;59.59;100956.84;4451791;32;33256;-86
2022/01/14 08:14:01;;;;;;;14.70;6.65;;;;;;;5.80;59.52;100967.34;4456609;32;32453;-85
2022/01/14 08:16:29;;;;;;;15.35;6.45;;;;;;;5.63;60.19;100961.31;4460502;32;33422;-86
2022/01/14 08:18:56;;;;;;;15.45;5.80;;;;;;;6.00;59.19;100961.16;4443159;31;33133;-86
2022/01/14 08:21:24;;;;;;;10.05;4.82;;;;;;;5.89;59.36;100954.19;4466793;31;33626;-86
2022/01/14 08:23:51;;;;;;;16.35;5.90;;;;;;;6.10;58.77;100939.22;4454839;31;33596;-86
2022/01/14 08:26:19;;;;;;;13.52;6.30;;;;;;;5.96;59.16;100946.31;4440621;32;32450;-85
2022/01/14 08:28:47;;;;;;;14.00;5.32;;;;;;;6.56;57.53;100938.87;4461417;32;34317;-86
2022/01/14 08:31:18;;;;;;;12.52;5.40;;;;;;;6.43;57.75;100942.47;4465645;31;33909;-85
2022/01/14 08:33:48;;;;;;;12.77;6.30;;;;;;;6.54;57.38;100935.37;4467251;32;32409;-85
2022/01/14 08:36:28;;;;;;;17.12;6.03;;;;;;;6.51;57.36;100940.66;4465292;32;33926;-85
2022/01/14 08:38:56;;;;;;;14.05;5.60;;;;;;;6.47;57.16;100933.69;4462271;32;33440;-85
2022/01/14 08:41:28;;;;;;;9.68;5.45;;;;;;;6.64;56.93;100931.78;4463967;32;32887;-85
2022/01/14 08:43:58;;;;;;;14.82;5.78;;;;;;;6.59;56.85;100934.44;4464924;32;33920;-85
2022/01/14 08:46:46;;;;;;;12.80;5.68;;;;;;;6.59;57.12;100931.81;4457300;32;32965;-85
2022/01/14 08:49:14;;;;;;;15.40;5.97;;;;;;;6.41;57.63;100922.38;4448713;32;33612;-85
2022/01/14 08:51:42;;;;;;;15.23;6.00;;;;;;;6.54;57.49;100914.38;4462820;32;33812;-85
2022/01/14 08:54:10;;;;;;;11.05;5.32;;;;;;;7.00;55.78;100922.66;4462649;32;34045;-85
2022/01/14 08:56:37;;;;;;;13.00;6.50;;;;;;;6.82;56.87;100920.22;4469047;32;33036;-85
2022/01/14 08:59:05;;;;;;;11.85;5.53;;;;;;;7.11;55.99;100905.00;4463951;32;33358;-85
2022/01/14 09:01:34;;;;;;;14.63;5.45;;;;;;;7.11;56.05;100912.03;4476934;32;33422;-86
2022/01/14 09:04:02;;;;;;;10.90;5.00;;;;;;;7.38;55.00;100906.44;4468762;32;33386;-85
2022/01/14 09:06:31;;;;;;;11.73;5.50;;;;;;;7.23;55.58;100901.37;4467834;32;33216;-85
2022/01/14 09:08:58;;;;;;;9.68;4.80;;;;;;;7.58;54.51;100914.06;4462030;32;33553;-85
2022/01/14 09:11:26;;;;;;;8.82;5.00;;;;;;;7.44;55.18;100906.34;4454877;32;33883;-85
2022/01/14 09:13:53;;;;;;;10.45;5.32;;;;;;;7.71;54.35;100914.75;4461419;32;33448;-85
2022/01/14 09:16:23;;;;;;;10.73;4.55;;;;;;;7.80;53.98;100903.25;4466120;32;34137;-85
2022/01/14 09:18:50;;;;;;;13.90;6.53;;;;;;;7.74;54.65;100909.47;4468488;32;33873;-85
2022/01/14 09:21:18;;;;;;;12.45;5.35;;;;;;;7.51;55.26;100901.03;4468076;32;34786;-85
2022/01/14 09:24:08;;;;;;;11.85;4.78;;;;;;;8.01;53.32;100896.78;4464362;32;33738;-84
2022/01/14 09:26:37;;;;;;;8.75;4.07;;;;;;;8.15;52.79;100879.00;4450975;32;31688;-85
2022/01/14 09:29:06;;;;;;;10.27;4.65;;;;;;;8.13;52.70;100870.28;4467831;32;33577;-85
2022/01/14 09:31:35;;;;;;;8.98;4.12;;;;;;;7.91;53.61;100870.63;4464751;32;33355;-85
2022/01/14 09:34:03;;;;;;;8.02;4.12;;;;;;;8.16;52.48;100870.22;4466973;32;34000;-85
2022/01/14 09:36:31;;;;;;;6.97;3.20;;;;;;;8.17;52.74;100866.72;4468400;32;34549;-85
2022/01/14 09:38:59;;;;;;;7.57;3.85;;;;;;;8.24;52.26;100860.44;4455310;32;34814;-85
2022/01/14 09:41:26;;;;;;;10.10;3.95;;;;;;;8.40;52.19;100859.34;4465686;32;34037;-85
2022/01/14 09:43:55;;;;;;;10.43;3.78;;;;;;;8.67;50.96;100857.94;4447560;32;33392;-85
2022/01/14 09:46:23;;;;;;;6.78;3.35;;;;;;;8.83;50.36;100858.53;4448677;32;32318;-85
2022/01/14 09:48:51;;;;;;;6.05;3.40;;;;;;;8.54;51.12;100842.41;4436374;32;34468;-85
2022/01/14 09:51:19;;;;;;;7.80;4.10;;;;;;;8.48;51.29;100850.41;4461865;31;33638;-85
2022/01/14 09:53:47;;;;;;;8.05;3.30;;;;;;;8.52;51.55;100850.31;4467059;32;31344;-85
2022/01/14 09:56:17;;;;;;;8.73;4.35;;;;;;;8.81;50.62;100855.03;4463556;32;33753;-85
2022/01/14 09:58:48;;;;;;;8.70;4.20;;;;;;;8.87;50.50;100844.38;4451814;32;34455;-85
2022/01/14 10:01:33;;;;;;;9.57;4.00;;;;;;;8.83;50.28;100850.63;4466207;31;34722;-85
2022/01/14 10:04:02;;;;;;;5.15;2.83;;;;;;;8.64;50.57;100849.22;4432902;31;32467;-85
2022/01/14 10:06:44;;;;;;;8.73;3.50;;;;;;;9.06;49.42;100828.19;4453514;32;32406;-85
2022/01/14 10:09:19;;;;;;;7.40;3.53;;;;;;;8.90;49.60;100822.38;4450089;31;33991;-85
2022/01/14 10:12:07;;;;;;;7.32;3.92;;;;;;;8.86;49.64;100821.56;4478634;31;33946;-85
2022/01/14 10:14:37;;;;;;;7.18;3.25;;;;;;;9.00;49.19;100817.78;4463994;31;32999;-85
2022/01/14 10:17:10;;;;;;;10.38;4.07;;;;;;;9.04;49.04;100808.94;4454104;31;32213;-85
2022/01/14 10:19:43;;;;;;;8.07;3.10;;;;;;;9.28;48.24;100800.47;4465562;32;33627;-84
2022/01/14 10:22:22;;;;;;;12.20;3.53;;;;;;;9.34;48.33;100794.19;4462796;32;34007;-89
2022/01/14 10:25:04;;;;;;;6.07;2.90;;;;;;;9.36;48.03;100789.78;4456395;32;32814;-89
2022/01/14 10:28:01;;;;;;;5.85;2.90;;;;;;;9.20;48.17;100784.84;4448938;31;32810;-87
2022/01/14 10:30:33;;;;;;;8.50;3.37;;;;;;;9.55;47.06;100783.19;4461906;31;33893;-85
2022/01/14 10:33:03;;;;;;;7.10;3.40;;;;;;;9.33;47.88;100769.63;4451443;32;34351;-84
2022/01/14 10:35:39;;;;;;;7.50;3.30;;;;;;;9.48;47.70;100773.66;4465083;32;30897;-87
2022/01/14 10:38:10;;;;;;;7.28;4.05;;;;;;;9.42;47.06;100772.03;4481369;31;34041;-87
2022/01/14 10:40:47;;;;;;;5.00;2.65;;;;;;;9.36;47.22;100769.56;4450981;31;33727;-87
2022/01/14 10:43:21;;;;;;;5.60;3.33;;;;;;;9.22;47.96;100766.37;4464317;32;33579;-87
2022/01/14 10:45:55;;;;;;;7.50;3.15;;;;;;;9.35;48.06;100766.94;4453217;31;31831;-87
2022/01/14 10:48:32;;;;;;;7.62;3.87;;;;;;;9.41;47.82;100761.53;4462531;32;31925;-88
2022/01/14 10:51:03;;;;;;;7.68;3.78;;;;;;;9.63;47.26;100756.59;4442144;31;34065;-87
2022/01/14 10:53:52;;;;;;;6.62;3.65;;;;;;;9.58;47.60;100750.56;4467586;31;34766;-87
2022/01/14 10:56:23;;;;;;;6.25;3.53;;;;;;;9.67;47.33;100745.06;4442854;32;33704;-87
2022/01/14 10:58:56;;;;;;;7.55;3.42;;;;;;;9.72;47.12;100720.31;4455218;32;33643;-87
2022/01/14 11:02:05;;;;;;;6.22;3.17;;;;;;;9.88;45.86;100741.91;4454147;32;34602;-87
2022/01/14 11:05:19;;;;;;;7.47;3.40;;;;;;;9.85;46.48;100734.06;4427814;31;32926;-87
2022/01/14 11:07:48;;;;;;;7.72;4.47;;;;;;;9.16;47.80;100737.50;4451410;32;32748;-87
2022/01/14 11:10:16;;;;;;;6.28;3.70;;;;;;;9.31;47.95;100739.81;4442148;32;32186;-88
2022/01/14 11:12:43;;;;;;;9.13;3.45;;;;;;;9.40;47.48;100733.44;4482203;31;33999;-87
2022/01/14 11:15:13;;;;;;;6.57;3.47;;;;;;;9.64;46.82;100732.00;4449327;32;33377;-88
2022/01/14 11:17:46;;;;;;;9.65;4.12;;;;;;;9.42;47.12;100724.59;4465432;31;32929;-86
2022/01/14 11:20:33;;;;;;;;;;;;;;;9.16;48.08;100722.59;4455424;32;32659;-87
2022/01/14 11:23:17;;;;;;;5.75;3.55;;;;;;;9.63;46.73;100723.19;4453514;31;33310;-87
2022/01/14 11:25:59;;;;;;;8.35;3.70;;;;;;;9.39;47.32;100716.75;4455684;32;32902;-87
2022/01/14 11:28:30;;;;;;;12.77;5.28;;;;;;;9.37;47.70;100721.19;4454334;32;33076;-87
2022/01/14 11:34:48;;;;;;;7.35;3.62;;;;;;;9.70;46.98;100703.69;4452307;31;33165;-87
2022/01/14 11:37:32;;;;;;;9.35;3.70;;;;;;;9.68;47.12;100701.97;4465635;32;32256;-88
2022/01/14 11:40:06;;;;;;;7.50;4.20;;;;;;;9.35;48.08;100711.59;4449453;31;33526;-87
2022/01/14 11:42:41;;;;;;;7.30;3.22;;;;;;;9.52;47.72;100705.91;4451041;32;34343;-87
2022/01/14 11:45:10;;;;;;;13.60;4.22;;;;;;;9.45;47.68;100706.06;4466791;31;34921;-87
2022/01/14 11:47:41;;;;;;;7.25;4.20;;;;;;;9.49;46.89;100681.37;4439071;32;33991;-87
2022/01/14 11:50:31;;;;;;;6.68;3.53;;;;;;;9.52;47.41;100682.19;4478663;31;33134;-86
2022/01/14 11:53:04;;;;;;;;;;;;;;;9.38;48.04;100693.94;4461648;31;33920;-88
2022/01/14 11:55:49;;;;;;;12.82;4.32;;;;;;;9.32;47.91;100666.88;4462921;32;34241;-87
2022/01/14 11:58:35;;;;;;;10.05;3.53;;;;;;;9.18;48.55;100685.66;4451090;31;31585;-87
2022/01/14 12:01:04;;;;;;;8.05;4.03;;;;;;;9.32;48.09;100667.72;4440855;32;32672;-88
2022/01/14 12:03:32;;;;;;;10.90;4.25;;;;;;;9.06;48.75;100691.19;4464842;31;31153;-88
2022/01/14 12:06:07;;;;;;;11.40;4.25;;;;;;;9.44;47.78;100679.72;4477139;31;33822;-87
2022/01/14 12:08:36;;;;;;;8.70;3.97;;;;;;;9.50;47.84;100682.25;4476859;31;34455;-87